sensor_id;sensor_type;location;lat;lon;timestamp;pressure;altitude;pressure_sealevel;temperature;humidity
36454;BME280;22478;51.740;-1.314;2023-08-31T00:01:55;99734.73;;;11.18;74.18
36454;BME280;22478;51.740;-1.314;2023-08-31T00:04:22;99727.73;;;12.15;78.87
36454;BME280;22478;51.740;-1.314;2023-08-31T00:06:49;99730.26;;;11.62;80.84
36454;BME280;22478;51.740;-1.314;2023-08-31T00:09:17;99728.86;;;12.44;78.38
36454;BME280;22478;51.740;-1.314;2023-08-31T00:11:44;99735.65;;;12.91;76.04
36454;BME280;22478;51.740;-1.314;2023-08-31T00:14:12;99737.14;;;12.57;76.35
36454;BME280;22478;51.740;-1.314;2023-08-31T00:16:39;99734.10;;;12.82;76.65
36454;BME280;22478;51.740;-1.314;2023-08-31T00:19:06;99732.50;;;12.55;75.52
36454;BME280;22478;51.740;-1.314;2023-08-31T00:21:33;99732.94;;;13.05;76.57
36454;BME280;22478;51.740;-1.314;2023-08-31T00:24:00;99732.72;;;12.72;75.51
36454;BME280;22478;51.740;-1.314;2023-08-31T00:26:28;99735.76;;;12.25;78.50
36454;BME280;22478;51.740;-1.314;2023-08-31T00:28:55;99734.37;;;11.86;78.08
36454;BME280;22478;51.740;-1.314;2023-08-31T00:31:22;99735.86;;;12.90;77.47
36454;BME280;22478;51.740;-1.314;2023-08-31T00:33:49;99739.81;;;11.84;80.76
36454;BME280;22478;51.740;-1.314;2023-08-31T00:36:16;99734.07;;;12.53;79.18
36454;BME280;22478;51.740;-1.314;2023-08-31T00:38:43;99726.80;;;10.99;80.07
36454;BME280;22478;51.740;-1.314;2023-08-31T00:41:10;99725.72;;;12.32;79.69
36454;BME280;22478;51.740;-1.314;2023-08-31T00:43:37;99721.15;;;11.80;80.15
36454;BME280;22478;51.740;-1.314;2023-08-31T00:46:04;99717.87;;;12.68;78.45
36454;BME280;22478;51.740;-1.314;2023-08-31T00:48:31;99718.78;;;12.35;78.94
36454;BME280;22478;51.740;-1.314;2023-08-31T00:50:59;99716.88;;;12.29;79.67
36454;BME280;22478;51.740;-1.314;2023-08-31T00:53:26;99716.79;;;11.43;83.70
36454;BME280;22478;51.740;-1.314;2023-08-31T00:55:53;99709.42;;;11.34;81.97
36454;BME280;22478;51.740;-1.314;2023-08-31T00:58:20;99710.93;;;11.72;82.10
36454;BME280;22478;51.740;-1.314;2023-08-31T01:00:54;99707.76;;;12.08;80.69
36454;BME280;22478;51.740;-1.314;2023-08-31T01:03:31;99707.19;;;11.93;81.31
36454;BME280;22478;51.740;-1.314;2023-08-31T01:06:08;99707.72;;;10.80;86.98
36454;BME280;22478;51.740;-1.314;2023-08-31T01:08:46;99705.15;;;11.54;83.89
36454;BME280;22478;51.740;-1.314;2023-08-31T01:11:21;99712.42;;;12.09;81.81
36454;BME280;22478;51.740;-1.314;2023-08-31T01:13:55;99714.59;;;11.73;83.38
36454;BME280;22478;51.740;-1.314;2023-08-31T01:16:28;99715.52;;;11.07;86.70
36454;BME280;22478;51.740;-1.314;2023-08-31T01:18:57;99712.85;;;12.01;82.24
36454;BME280;22478;51.740;-1.314;2023-08-31T01:21:29;99712.11;;;11.38;84.69
36454;BME280;22478;51.740;-1.314;2023-08-31T01:23:57;99712.77;;;12.15;82.82
36454;BME280;22478;51.740;-1.314;2023-08-31T01:26:25;99710.19;;;11.94;81.97
36454;BME280;22478;51.740;-1.314;2023-08-31T01:28:53;99712.06;;;12.26;82.55
36454;BME280;22478;51.740;-1.314;2023-08-31T01:31:22;99714.06;;;11.75;83.14
36454;BME280;22478;51.740;-1.314;2023-08-31T01:33:49;99716.31;;;11.39;84.14
36454;BME280;22478;51.740;-1.314;2023-08-31T01:36:20;99717.67;;;13.07;79.05
36454;BME280;22478;51.740;-1.314;2023-08-31T01:38:55;99722.54;;;10.74;84.14
36454;BME280;22478;51.740;-1.314;2023-08-31T01:41:28;99724.99;;;10.37;86.52
36454;BME280;22478;51.740;-1.314;2023-08-31T01:43:58;99719.39;;;11.89;81.49
36454;BME280;22478;51.740;-1.314;2023-08-31T01:46:26;99719.10;;;11.92;80.83
36454;BME280;22478;51.740;-1.314;2023-08-31T01:48:53;99712.64;;;12.96;78.66
36454;BME280;22478;51.740;-1.314;2023-08-31T01:51:20;99714.21;;;13.48;78.31
36454;BME280;22478;51.740;-1.314;2023-08-31T01:53:48;99705.90;;;12.20;79.72
36454;BME280;22478;51.740;-1.314;2023-08-31T01:56:15;99698.96;;;12.85;76.24
36454;BME280;22478;51.740;-1.314;2023-08-31T01:58:42;99697.57;;;12.58;77.71
36454;BME280;22478;51.740;-1.314;2023-08-31T02:01:09;99696.27;;;12.85;76.39
36454;BME280;22478;51.740;-1.314;2023-08-31T02:03:36;99694.80;;;13.49;75.93
36454;BME280;22478;51.740;-1.314;2023-08-31T02:06:03;99698.46;;;12.76;76.60
36454;BME280;22478;51.740;-1.314;2023-08-31T02:08:31;99692.96;;;13.35;77.06
36454;BME280;22478;51.740;-1.314;2023-08-31T02:10:58;99698.46;;;13.19;75.06
36454;BME280;22478;51.740;-1.314;2023-08-31T02:13:26;99697.62;;;11.15;82.88
36454;BME280;22478;51.740;-1.314;2023-08-31T02:15:53;99692.77;;;10.78;87.80
36454;BME280;22478;51.740;-1.314;2023-08-31T02:18:21;99686.72;;;10.90;86.09
36454;BME280;22478;51.740;-1.314;2023-08-31T02:20:48;99686.02;;;11.60;84.09
36454;BME280;22478;51.740;-1.314;2023-08-31T02:23:15;99684.60;;;12.18;80.31
36454;BME280;22478;51.740;-1.314;2023-08-31T02:25:42;99684.93;;;13.19;77.79
36454;BME280;22478;51.740;-1.314;2023-08-31T02:28:10;99686.81;;;12.83;77.11
36454;BME280;22478;51.740;-1.314;2023-08-31T02:30:37;99687.42;;;12.25;79.23
36454;BME280;22478;51.740;-1.314;2023-08-31T02:33:04;99680.18;;;12.91;76.90
36454;BME280;22478;51.740;-1.314;2023-08-31T02:35:32;99679.33;;;12.22;78.52
36454;BME280;22478;51.740;-1.314;2023-08-31T02:37:59;99683.80;;;12.36;78.76
36454;BME280;22478;51.740;-1.314;2023-08-31T02:40:26;99684.63;;;12.66;76.28
36454;BME280;22478;51.740;-1.314;2023-08-31T02:42:54;99682.83;;;12.79;75.59
36454;BME280;22478;51.740;-1.314;2023-08-31T02:45:21;99681.20;;;13.01;74.87
36454;BME280;22478;51.740;-1.314;2023-08-31T02:47:48;99677.06;;;13.06;75.55
36454;BME280;22478;51.740;-1.314;2023-08-31T02:50:15;99678.61;;;12.70;77.27
36454;BME280;22478;51.740;-1.314;2023-08-31T02:52:42;99675.70;;;11.65;79.86
36454;BME280;22478;51.740;-1.314;2023-08-31T02:55:09;99679.98;;;11.79;79.71
36454;BME280;22478;51.740;-1.314;2023-08-31T02:57:36;99678.67;;;12.80;77.84
36454;BME280;22478;51.740;-1.314;2023-08-31T03:00:04;99673.74;;;12.88;77.62
36454;BME280;22478;51.740;-1.314;2023-08-31T03:02:31;99668.75;;;11.91;81.69
36454;BME280;22478;51.740;-1.314;2023-08-31T03:04:58;99669.96;;;12.01;80.71
36454;BME280;22478;51.740;-1.314;2023-08-31T03:07:25;99669.54;;;12.91;77.97
36454;BME280;22478;51.740;-1.314;2023-08-31T03:09:52;99672.75;;;13.07;76.59
36454;BME280;22478;51.740;-1.314;2023-08-31T03:12:19;99671.82;;;12.85;77.68
36454;BME280;22478;51.740;-1.314;2023-08-31T03:14:46;99673.84;;;13.01;77.00
36454;BME280;22478;51.740;-1.314;2023-08-31T03:17:13;99672.64;;;13.09;76.20
36454;BME280;22478;51.740;-1.314;2023-08-31T03:19:41;99669.08;;;12.66;77.96
36454;BME280;22478;51.740;-1.314;2023-08-31T03:22:09;99666.88;;;11.96;81.71
36454;BME280;22478;51.740;-1.314;2023-08-31T03:24:36;99664.13;;;13.43;75.99
36454;BME280;22478;51.740;-1.314;2023-08-31T03:27:03;99662.78;;;12.93;76.76
36454;BME280;22478;51.740;-1.314;2023-08-31T03:29:30;99662.45;;;13.16;76.84
36454;BME280;22478;51.740;-1.314;2023-08-31T03:31:59;99663.11;;;13.21;76.46
36454;BME280;22478;51.740;-1.314;2023-08-31T03:34:28;99665.39;;;13.20;76.04
36454;BME280;22478;51.740;-1.314;2023-08-31T03:36:56;99661.57;;;13.12;76.07
36454;BME280;22478;51.740;-1.314;2023-08-31T03:39:23;99662.24;;;13.30;76.17
36454;BME280;22478;51.740;-1.314;2023-08-31T03:41:53;99666.31;;;12.63;77.58
36454;BME280;22478;51.740;-1.314;2023-08-31T03:44:20;99671.23;;;13.34;76.71
36454;BME280;22478;51.740;-1.314;2023-08-31T03:46:48;99676.93;;;13.51;75.85
36454;BME280;22478;51.740;-1.314;2023-08-31T03:49:15;99680.92;;;13.34;75.93
36454;BME280;22478;51.740;-1.314;2023-08-31T03:51:42;99676.48;;;13.42;75.17
36454;BME280;22478;51.740;-1.314;2023-08-31T03:54:09;99674.52;;;13.30;76.14
36454;BME280;22478;51.740;-1.314;2023-08-31T03:56:36;99675.74;;;13.04;76.12
36454;BME280;22478;51.740;-1.314;2023-08-31T03:59:04;99671.29;;;13.13;74.72
36454;BME280;22478;51.740;-1.314;2023-08-31T04:01:32;99671.67;;;13.56;74.87
36454;BME280;22478;51.740;-1.314;2023-08-31T04:03:59;99671.31;;;13.44;74.76
36454;BME280;22478;51.740;-1.314;2023-08-31T04:06:26;99671.68;;;13.63;74.44
36454;BME280;22478;51.740;-1.314;2023-08-31T04:08:53;99667.52;;;13.28;75.20
36454;BME280;22478;51.740;-1.314;2023-08-31T04:11:20;99665.75;;;13.50;76.27
36454;BME280;22478;51.740;-1.314;2023-08-31T04:13:47;99669.96;;;12.78;77.69
36454;BME280;22478;51.740;-1.314;2023-08-31T04:16:14;99673.31;;;12.64;78.21
36454;BME280;22478;51.740;-1.314;2023-08-31T04:18:41;99671.68;;;12.70;78.93
36454;BME280;22478;51.740;-1.314;2023-08-31T04:21:08;99672.51;;;13.08;77.50
36454;BME280;22478;51.740;-1.314;2023-08-31T04:23:35;99676.57;;;12.78;81.38
36454;BME280;22478;51.740;-1.314;2023-08-31T04:26:10;99673.97;;;12.35;80.54
36454;BME280;22478;51.740;-1.314;2023-08-31T04:28:37;99672.78;;;13.18;78.54
36454;BME280;22478;51.740;-1.314;2023-08-31T04:31:05;99668.13;;;12.74;79.61
36454;BME280;22478;51.740;-1.314;2023-08-31T04:33:33;99664.05;;;11.45;81.50
36454;BME280;22478;51.740;-1.314;2023-08-31T04:36:00;99662.54;;;13.27;79.67
36454;BME280;22478;51.740;-1.314;2023-08-31T04:38:28;99665.73;;;12.56;77.95
36454;BME280;22478;51.740;-1.314;2023-08-31T04:40:58;99666.29;;;12.05;78.91
36454;BME280;22478;51.740;-1.314;2023-08-31T04:43:25;99665.55;;;12.19;80.46
36454;BME280;22478;51.740;-1.314;2023-08-31T04:45:53;99665.13;;;12.52;78.84
36454;BME280;22478;51.740;-1.314;2023-08-31T04:48:21;99673.98;;;12.93;79.37
36454;BME280;22478;51.740;-1.314;2023-08-31T04:50:48;99675.16;;;13.10;79.62
36454;BME280;22478;51.740;-1.314;2023-08-31T04:53:15;99677.79;;;11.53;82.09
36454;BME280;22478;51.740;-1.314;2023-08-31T04:55:42;99677.93;;;12.31;81.03
36454;BME280;22478;51.740;-1.314;2023-08-31T04:58:10;99676.48;;;11.93;82.33
36454;BME280;22478;51.740;-1.314;2023-08-31T05:00:36;99680.21;;;12.46;80.98
36454;BME280;22478;51.740;-1.314;2023-08-31T05:03:04;99679.98;;;11.98;82.74
36454;BME280;22478;51.740;-1.314;2023-08-31T05:05:31;99680.22;;;12.51;81.15
36454;BME280;22478;51.740;-1.314;2023-08-31T05:07:58;99676.65;;;12.81;79.54
36454;BME280;22478;51.740;-1.314;2023-08-31T05:10:25;99677.43;;;12.78;80.99
36454;BME280;22478;51.740;-1.314;2023-08-31T05:12:52;99677.84;;;12.47;81.09
36454;BME280;22478;51.740;-1.314;2023-08-31T05:15:19;99674.86;;;12.71;78.89
36454;BME280;22478;51.740;-1.314;2023-08-31T05:17:47;99668.92;;;12.54;80.30
36454;BME280;22478;51.740;-1.314;2023-08-31T05:20:14;99665.60;;;12.60;80.61
36454;BME280;22478;51.740;-1.314;2023-08-31T05:22:40;99661.43;;;12.76;80.05
36454;BME280;22478;51.740;-1.314;2023-08-31T05:25:08;99663.54;;;11.31;84.74
36454;BME280;22478;51.740;-1.314;2023-08-31T05:27:35;99665.15;;;12.14;83.02
36454;BME280;22478;51.740;-1.314;2023-08-31T05:30:03;99669.42;;;12.73;82.86
36454;BME280;22478;51.740;-1.314;2023-08-31T05:32:30;99674.41;;;12.06;83.64
36454;BME280;22478;51.740;-1.314;2023-08-31T05:34:58;99672.69;;;12.34;83.91
36454;BME280;22478;51.740;-1.314;2023-08-31T05:37:25;99674.02;;;13.80;81.39
36454;BME280;22478;51.740;-1.314;2023-08-31T05:39:51;99677.79;;;12.68;82.29
36454;BME280;22478;51.740;-1.314;2023-08-31T05:42:19;99677.30;;;13.26;80.48
36454;BME280;22478;51.740;-1.314;2023-08-31T05:44:46;99672.58;;;12.41;79.96
36454;BME280;22478;51.740;-1.314;2023-08-31T05:47:13;99670.27;;;13.44;79.73
36454;BME280;22478;51.740;-1.314;2023-08-31T05:49:40;99669.23;;;13.57;79.13
36454;BME280;22478;51.740;-1.314;2023-08-31T05:52:07;99669.54;;;12.82;81.16
36454;BME280;22478;51.740;-1.314;2023-08-31T05:54:34;99669.68;;;13.20;80.81
36454;BME280;22478;51.740;-1.314;2023-08-31T05:57:02;99676.67;;;13.34;80.99
36454;BME280;22478;51.740;-1.314;2023-08-31T05:59:29;99673.98;;;13.43;80.84
36454;BME280;22478;51.740;-1.314;2023-08-31T06:01:56;99676.72;;;12.69;84.01
36454;BME280;22478;51.740;-1.314;2023-08-31T06:04:24;99679.89;;;13.51;81.38
36454;BME280;22478;51.740;-1.314;2023-08-31T06:06:51;99676.25;;;13.83;80.37
36454;BME280;22478;51.740;-1.314;2023-08-31T06:09:17;99677.95;;;14.17;79.14
36454;BME280;22478;51.740;-1.314;2023-08-31T06:11:45;99684.58;;;13.57;80.08
36454;BME280;22478;51.740;-1.314;2023-08-31T06:14:12;99689.81;;;12.43;81.50
36454;BME280;22478;51.740;-1.314;2023-08-31T06:16:39;99689.76;;;10.65;98.88
36454;BME280;22478;51.740;-1.314;2023-08-31T06:19:06;99690.40;;;10.66;98.50
36454;BME280;22478;51.740;-1.314;2023-08-31T06:21:34;99689.34;;;13.08;87.27
36454;BME280;22478;51.740;-1.314;2023-08-31T06:24:00;99692.30;;;12.52;87.98
36454;BME280;22478;51.740;-1.314;2023-08-31T06:26:28;99692.74;;;11.96;91.60
36454;BME280;22478;51.740;-1.314;2023-08-31T06:28:55;99699.14;;;11.44;92.71
36454;BME280;22478;51.740;-1.314;2023-08-31T06:31:22;99701.74;;;11.33;93.71
36454;BME280;22478;51.740;-1.314;2023-08-31T06:33:49;99709.81;;;9.65;100.00
36454;BME280;22478;51.740;-1.314;2023-08-31T06:36:16;99707.60;;;11.37;95.61
36454;BME280;22478;51.740;-1.314;2023-08-31T06:38:43;99706.03;;;10.40;100.00
36454;BME280;22478;51.740;-1.314;2023-08-31T06:41:10;99705.10;;;10.48;98.12
36454;BME280;22478;51.740;-1.314;2023-08-31T06:43:37;99706.77;;;11.27;97.87
36454;BME280;22478;51.740;-1.314;2023-08-31T06:46:04;99704.79;;;12.71;88.02
36454;BME280;22478;51.740;-1.314;2023-08-31T06:48:32;99706.86;;;11.53;93.97
36454;BME280;22478;51.740;-1.314;2023-08-31T06:50:59;99699.17;;;12.55;90.41
36454;BME280;22478;51.740;-1.314;2023-08-31T06:53:26;99696.77;;;13.09;85.48
36454;BME280;22478;51.740;-1.314;2023-08-31T06:55:53;99695.72;;;13.24;79.46
36454;BME280;22478;51.740;-1.314;2023-08-31T06:58:20;99696.11;;;14.24;79.24
36454;BME280;22478;51.740;-1.314;2023-08-31T07:00:47;99698.05;;;14.09;77.22
36454;BME280;22478;51.740;-1.314;2023-08-31T07:03:14;99702.74;;;12.78;80.70
36454;BME280;22478;51.740;-1.314;2023-08-31T07:05:42;99698.11;;;13.41;77.98
36454;BME280;22478;51.740;-1.314;2023-08-31T07:08:10;99699.13;;;13.75;78.30
36454;BME280;22478;51.740;-1.314;2023-08-31T07:10:37;99703.05;;;12.36;82.83
36454;BME280;22478;51.740;-1.314;2023-08-31T07:13:05;99703.75;;;12.53;81.38
36454;BME280;22478;51.740;-1.314;2023-08-31T07:15:33;99700.41;;;12.63;78.86
36454;BME280;22478;51.740;-1.314;2023-08-31T07:18:00;99693.74;;;13.76;75.16
36454;BME280;22478;51.740;-1.314;2023-08-31T07:20:28;99695.12;;;13.55;76.36
36454;BME280;22478;51.740;-1.314;2023-08-31T07:22:55;99688.55;;;13.51;75.81
36454;BME280;22478;51.740;-1.314;2023-08-31T07:25:22;99682.76;;;13.81;74.34
36454;BME280;22478;51.740;-1.314;2023-08-31T07:27:49;99677.51;;;14.42;75.19
36454;BME280;22478;51.740;-1.314;2023-08-31T07:30:16;99672.84;;;14.59;74.22
36454;BME280;22478;51.740;-1.314;2023-08-31T07:32:43;99678.42;;;13.27;77.59
36454;BME280;22478;51.740;-1.314;2023-08-31T07:35:10;99678.33;;;14.20;77.59
36454;BME280;22478;51.740;-1.314;2023-08-31T07:37:37;99680.98;;;15.01;76.68
36454;BME280;22478;51.740;-1.314;2023-08-31T07:40:05;99683.34;;;13.84;83.06
36454;BME280;22478;51.740;-1.314;2023-08-31T07:42:33;99686.28;;;13.40;85.90
36454;BME280;22478;51.740;-1.314;2023-08-31T07:45:00;99687.30;;;13.17;87.32
36454;BME280;22478;51.740;-1.314;2023-08-31T07:47:27;99678.39;;;14.22;79.59
36454;BME280;22478;51.740;-1.314;2023-08-31T07:49:54;99680.98;;;13.84;81.62
36454;BME280;22478;51.740;-1.314;2023-08-31T07:52:22;99687.70;;;12.12;89.79
36454;BME280;22478;51.740;-1.314;2023-08-31T07:54:49;99681.78;;;13.40;84.38
36454;BME280;22478;51.740;-1.314;2023-08-31T07:57:16;99680.42;;;13.06;85.53
36454;BME280;22478;51.740;-1.314;2023-08-31T07:59:43;99682.94;;;12.77;87.69
36454;BME280;22478;51.740;-1.314;2023-08-31T08:02:11;99678.70;;;13.72;84.00
36454;BME280;22478;51.740;-1.314;2023-08-31T08:04:37;99683.02;;;13.35;84.92
36454;BME280;22478;51.740;-1.314;2023-08-31T08:07:05;99687.37;;;11.69;88.28
36454;BME280;22478;51.740;-1.314;2023-08-31T08:09:31;99685.97;;;13.57;88.40
36454;BME280;22478;51.740;-1.314;2023-08-31T08:11:59;99688.90;;;13.13;89.99
36454;BME280;22478;51.740;-1.314;2023-08-31T08:14:25;99684.01;;;14.28;88.16
36454;BME280;22478;51.740;-1.314;2023-08-31T08:16:52;99689.06;;;12.42;98.34
36454;BME280;22478;51.740;-1.314;2023-08-31T08:19:21;99689.93;;;12.68;92.15
36454;BME280;22478;51.740;-1.314;2023-08-31T08:21:49;99689.77;;;14.07;88.53
36454;BME280;22478;51.740;-1.314;2023-08-31T08:24:16;99690.05;;;13.45;91.73
36454;BME280;22478;51.740;-1.314;2023-08-31T08:26:43;99689.24;;;13.46;91.48
36454;BME280;22478;51.740;-1.314;2023-08-31T08:29:10;99691.44;;;13.40;93.78
36454;BME280;22478;51.740;-1.314;2023-08-31T08:31:37;99691.37;;;13.69;91.93
36454;BME280;22478;51.740;-1.314;2023-08-31T08:34:05;99688.31;;;13.21;93.30
36454;BME280;22478;51.740;-1.314;2023-08-31T08:36:32;99693.18;;;12.90;96.16
36454;BME280;22478;51.740;-1.314;2023-08-31T08:38:59;99692.11;;;13.16;93.15
36454;BME280;22478;51.740;-1.314;2023-08-31T08:41:29;99694.43;;;13.79;91.92
36454;BME280;22478;51.740;-1.314;2023-08-31T08:44:00;99692.91;;;12.23;100.00
36454;BME280;22478;51.740;-1.314;2023-08-31T08:46:31;99695.43;;;13.30;98.59
36454;BME280;22478;51.740;-1.314;2023-08-31T08:49:00;99696.04;;;12.67;100.00
36454;BME280;22478;51.740;-1.314;2023-08-31T08:51:27;99695.92;;;12.41;99.28
36454;BME280;22478;51.740;-1.314;2023-08-31T08:53:55;99696.47;;;12.21;100.00
36454;BME280;22478;51.740;-1.314;2023-08-31T08:56:23;99698.85;;;13.30;100.00
36454;BME280;22478;51.740;-1.314;2023-08-31T08:58:50;99700.63;;;12.77;100.00
36454;BME280;22478;51.740;-1.314;2023-08-31T09:01:18;99698.51;;;13.88;99.69
36454;BME280;22478;51.740;-1.314;2023-08-31T09:03:45;99698.76;;;12.86;100.00
36454;BME280;22478;51.740;-1.314;2023-08-31T09:06:12;99702.40;;;11.65;100.00
36454;BME280;22478;51.740;-1.314;2023-08-31T09:08:41;99703.85;;;11.75;100.00
36454;BME280;22478;51.740;-1.314;2023-08-31T09:11:08;99702.56;;;12.57;100.00
36454;BME280;22478;51.740;-1.314;2023-08-31T09:13:46;99704.89;;;13.77;100.00
36454;BME280;22478;51.740;-1.314;2023-08-31T09:16:24;99704.01;;;13.70;100.00
36454;BME280;22478;51.740;-1.314;2023-08-31T09:18:51;99704.44;;;12.99;100.00
36454;BME280;22478;51.740;-1.314;2023-08-31T09:21:19;99708.21;;;11.74;100.00
36454;BME280;22478;51.740;-1.314;2023-08-31T09:23:54;99701.70;;;13.10;100.00
36454;BME280;22478;51.740;-1.314;2023-08-31T09:26:23;99698.00;;;12.68;100.00
36454;BME280;22478;51.740;-1.314;2023-08-31T09:28:51;99693.66;;;13.75;100.00
36454;BME280;22478;51.740;-1.314;2023-08-31T09:31:18;99694.55;;;13.68;100.00
36454;BME280;22478;51.740;-1.314;2023-08-31T09:33:50;99691.55;;;14.57;100.00
36454;BME280;22478;51.740;-1.314;2023-08-31T09:36:17;99683.66;;;13.46;100.00
36454;BME280;22478;51.740;-1.314;2023-08-31T09:38:45;99678.77;;;13.54;100.00
36454;BME280;22478;51.740;-1.314;2023-08-31T09:41:13;99671.72;;;14.79;100.00
36454;BME280;22478;51.740;-1.314;2023-08-31T09:43:40;99679.91;;;11.84;100.00
36454;BME280;22478;51.740;-1.314;2023-08-31T09:46:09;99674.96;;;13.46;100.00
36454;BME280;22478;51.740;-1.314;2023-08-31T09:48:36;99674.33;;;13.42;96.14
36454;BME280;22478;51.740;-1.314;2023-08-31T09:51:06;99678.90;;;13.60;100.00
36454;BME280;22478;51.740;-1.314;2023-08-31T09:53:36;99677.59;;;13.20;100.00
36454;BME280;22478;51.740;-1.314;2023-08-31T09:56:05;99672.02;;;13.98;97.01
36454;BME280;22478;51.740;-1.314;2023-08-31T09:58:33;99680.18;;;11.59;100.00
36454;BME280;22478;51.740;-1.314;2023-08-31T10:01:01;99684.58;;;12.50;100.00
36454;BME280;22478;51.740;-1.314;2023-08-31T10:03:28;99680.95;;;13.46;100.00
36454;BME280;22478;51.740;-1.314;2023-08-31T10:05:56;99673.68;;;13.26;100.00
36454;BME280;22478;51.740;-1.314;2023-08-31T10:08:25;99664.77;;;14.57;100.00
36454;BME280;22478;51.740;-1.314;2023-08-31T10:10:54;99670.42;;;14.83;100.00
36454;BME280;22478;51.740;-1.314;2023-08-31T10:13:21;99666.29;;;15.39;96.88
36454;BME280;22478;51.740;-1.314;2023-08-31T10:15:49;99664.97;;;14.95;97.53
36454;BME280;22478;51.740;-1.314;2023-08-31T10:18:17;99667.70;;;14.05;99.76
36454;BME280;22478;51.740;-1.314;2023-08-31T10:20:44;99664.64;;;15.25;100.00
36454;BME280;22478;51.740;-1.314;2023-08-31T10:23:13;99664.96;;;15.46;96.46
36454;BME280;22478;51.740;-1.314;2023-08-31T10:26:23;99671.51;;;12.24;100.00
36454;BME280;22478;51.740;-1.314;2023-08-31T10:28:51;99664.99;;;14.84;93.09
36454;BME280;22478;51.740;-1.314;2023-08-31T10:31:19;99662.98;;;14.23;88.42
36454;BME280;22478;51.740;-1.314;2023-08-31T10:33:54;99666.24;;;14.77;94.18
36454;BME280;22478;51.740;-1.314;2023-08-31T10:36:21;99672.09;;;13.57;96.83
36454;BME280;22478;51.740;-1.314;2023-08-31T10:39:04;99664.45;;;15.32;97.07
36454;BME280;22478;51.740;-1.314;2023-08-31T10:41:33;99668.98;;;13.20;100.00
36454;BME280;22478;51.740;-1.314;2023-08-31T10:44:01;99667.30;;;12.24;100.00
36454;BME280;22478;51.740;-1.314;2023-08-31T10:46:30;99661.26;;;14.00;100.00
36454;BME280;22478;51.740;-1.314;2023-08-31T10:49:00;99660.79;;;14.29;96.32
36454;BME280;22478;51.740;-1.314;2023-08-31T10:51:29;99657.27;;;15.86;90.14
36454;BME280;22478;51.740;-1.314;2023-08-31T10:54:06;99656.87;;;15.65;97.23
36454;BME280;22478;51.740;-1.314;2023-08-31T10:56:33;99655.22;;;15.77;91.34
36454;BME280;22478;51.740;-1.314;2023-08-31T10:59:01;99658.78;;;14.86;93.66
36454;BME280;22478;51.740;-1.314;2023-08-31T11:02:01;99661.34;;;13.43;100.00
36454;BME280;22478;51.740;-1.314;2023-08-31T11:04:30;99652.57;;;15.27;99.36
36454;BME280;22478;51.740;-1.314;2023-08-31T11:07:14;99649.43;;;15.54;91.23
36454;BME280;22478;51.740;-1.314;2023-08-31T11:09:43;99647.17;;;16.21;85.30
36454;BME280;22478;51.740;-1.314;2023-08-31T11:12:11;99643.69;;;15.65;87.89
36454;BME280;22478;51.740;-1.314;2023-08-31T11:14:39;99646.51;;;14.66;89.71
36454;BME280;22478;51.740;-1.314;2023-08-31T11:17:06;99644.99;;;13.41;91.37
36454;BME280;22478;51.740;-1.314;2023-08-31T11:19:34;99641.44;;;15.64;87.63
36454;BME280;22478;51.740;-1.314;2023-08-31T11:22:03;99643.97;;;14.20;92.09
36454;BME280;22478;51.740;-1.314;2023-08-31T11:24:32;99642.43;;;13.91;92.82
36454;BME280;22478;51.740;-1.314;2023-08-31T11:27:00;99639.47;;;14.11;90.63
36454;BME280;22478;51.740;-1.314;2023-08-31T11:29:27;99638.04;;;14.34;92.43
36454;BME280;22478;51.740;-1.314;2023-08-31T11:31:56;99638.11;;;14.04;89.71
36454;BME280;22478;51.740;-1.314;2023-08-31T11:34:23;99633.79;;;16.09;87.55
36454;BME280;22478;51.740;-1.314;2023-08-31T11:36:50;99632.86;;;12.53;99.93
36454;BME280;22478;51.740;-1.314;2023-08-31T11:39:18;99625.69;;;15.80;87.00
36454;BME280;22478;51.740;-1.314;2023-08-31T11:41:45;99626.82;;;15.02;92.62
36454;BME280;22478;51.740;-1.314;2023-08-31T11:44:13;99620.83;;;15.32;94.94
36454;BME280;22478;51.740;-1.314;2023-08-31T11:46:42;99618.44;;;13.56;97.76
36454;BME280;22478;51.740;-1.314;2023-08-31T11:49:10;99620.99;;;14.53;91.27
36454;BME280;22478;51.740;-1.314;2023-08-31T11:51:40;99620.67;;;15.07;97.27
36454;BME280;22478;51.740;-1.314;2023-08-31T11:54:07;99613.17;;;15.49;91.10
36454;BME280;22478;51.740;-1.314;2023-08-31T11:56:43;99608.34;;;15.75;85.26
36454;BME280;22478;51.740;-1.314;2023-08-31T11:59:11;99611.28;;;13.80;93.35
36454;BME280;22478;51.740;-1.314;2023-08-31T12:01:39;99611.17;;;12.01;100.00
36454;BME280;22478;51.740;-1.314;2023-08-31T12:04:16;99607.60;;;12.50;100.00
36454;BME280;22478;51.740;-1.314;2023-08-31T12:06:46;99609.25;;;14.74;91.91
36454;BME280;22478;51.740;-1.314;2023-08-31T12:09:13;99602.94;;;14.63;85.73
36454;BME280;22478;51.740;-1.314;2023-08-31T12:11:40;99598.99;;;15.73;84.26
36454;BME280;22478;51.740;-1.314;2023-08-31T12:14:19;99599.26;;;14.99;89.19
36454;BME280;22478;51.740;-1.314;2023-08-31T12:16:46;99600.78;;;14.84;88.88
36454;BME280;22478;51.740;-1.314;2023-08-31T12:19:14;99601.53;;;14.72;86.64
36454;BME280;22478;51.740;-1.314;2023-08-31T12:21:43;99596.69;;;15.59;72.39
36454;BME280;22478;51.740;-1.314;2023-08-31T12:24:11;99587.63;;;16.80;70.55
36454;BME280;22478;51.740;-1.314;2023-08-31T12:26:40;99588.84;;;14.60;68.84
36454;BME280;22478;51.740;-1.314;2023-08-31T12:29:07;99586.71;;;14.79;64.54
36454;BME280;22478;51.740;-1.314;2023-08-31T12:31:35;99581.94;;;15.46;63.54
36454;BME280;22478;51.740;-1.314;2023-08-31T12:34:03;99589.83;;;13.85;71.37
36454;BME280;22478;51.740;-1.314;2023-08-31T12:36:30;99593.57;;;12.60;79.25
36454;BME280;22478;51.740;-1.314;2023-08-31T12:38:57;99590.27;;;11.49;89.98
36454;BME280;22478;51.740;-1.314;2023-08-31T12:41:24;99586.83;;;13.53;81.27
36454;BME280;22478;51.740;-1.314;2023-08-31T12:43:51;99591.31;;;14.16;79.76
36454;BME280;22478;51.740;-1.314;2023-08-31T12:46:18;99594.79;;;13.32;80.38
36454;BME280;22478;51.740;-1.314;2023-08-31T12:48:45;99594.16;;;13.86;79.66
36454;BME280;22478;51.740;-1.314;2023-08-31T12:51:12;99597.68;;;12.11;88.23
36454;BME280;22478;51.740;-1.314;2023-08-31T12:53:39;99600.34;;;12.80;88.30